createdAt,value
2022-09-10T00:01:42.636Z,1.10
2022-09-10T00:03:48.845Z,1.05
2022-09-10T00:05:53.801Z,0.88
2022-09-10T00:08:01.714Z,0.65
2022-09-10T00:10:06.828Z,0.73
2022-09-10T00:14:19.215Z,0.95
2022-09-10T00:16:24.175Z,0.60
2022-09-10T00:18:29.577Z,1.00
2022-09-10T00:20:34.316Z,0.70
2022-09-10T00:22:39.366Z,0.88
2022-09-10T00:24:46.709Z,0.90
2022-09-10T00:26:51.503Z,1.08
2022-09-10T00:28:59.583Z,0.90
2022-09-10T00:31:07.753Z,1.00
2022-09-10T00:33:12.768Z,0.80
2022-09-10T00:35:17.685Z,1.08
2022-09-10T00:37:22.697Z,0.82
2022-09-10T00:39:27.551Z,0.77
2022-09-10T00:41:36.857Z,0.90
2022-09-10T00:43:51.472Z,0.80
2022-09-10T00:46:00.422Z,0.70
2022-09-10T00:48:11.620Z,0.80
2022-09-10T00:50:23.775Z,0.75
2022-09-10T00:52:29.503Z,0.90
2022-09-10T00:54:37.235Z,0.80
2022-09-10T00:56:45.468Z,0.90
2022-09-10T00:58:50.794Z,1.08
2022-09-10T01:00:59.163Z,0.90
2022-09-10T01:03:06.268Z,0.88
2022-09-10T01:05:13.199Z,1.20
2022-09-10T01:07:19.154Z,0.85
2022-09-10T01:09:26.691Z,0.77
2022-09-10T01:11:45.365Z,1.20
2022-09-10T01:14:09.876Z,0.90
2022-09-10T01:16:25.178Z,0.93
2022-09-10T01:18:36.830Z,0.70
2022-09-10T01:20:57.049Z,0.90
2022-09-10T01:23:24.487Z,0.93
2022-09-10T01:25:39.819Z,1.00
2022-09-10T01:27:51.768Z,0.90
2022-09-10T01:30:03.467Z,0.80
2022-09-10T01:32:15.481Z,1.15
2022-09-10T01:34:30.614Z,0.80
2022-09-10T01:36:41.842Z,0.80
2022-09-10T01:38:47.111Z,0.93
2022-09-10T01:40:52.960Z,0.85
2022-09-10T01:43:05.900Z,0.90
2022-09-10T01:45:16.723Z,0.95
2022-09-10T01:47:38.620Z,0.98
2022-09-10T01:49:58.234Z,1.08
2022-09-10T01:52:25.609Z,0.80
2022-09-10T01:54:47.255Z,0.80
2022-09-10T01:56:56.930Z,0.90
2022-09-10T01:59:12.382Z,0.98
2022-09-10T02:01:26.249Z,0.60
2022-09-10T02:03:33.201Z,0.82
2022-09-10T02:05:41.873Z,0.90
2022-09-10T02:07:51.169Z,0.75
2022-09-10T02:09:57.615Z,0.98
2022-09-10T02:12:04.542Z,1.02
2022-09-10T02:16:59.362Z,0.80
2022-09-10T02:19:05.431Z,0.70
2022-09-10T02:21:10.336Z,0.70
2022-09-10T02:23:18.478Z,0.80
2022-09-10T02:25:23.956Z,0.75
2022-09-10T02:27:33.631Z,0.70
2022-09-10T02:31:47.548Z,0.98
2022-09-10T02:33:54.640Z,0.80
2022-09-10T02:36:02.301Z,0.70
2022-09-10T02:38:09.903Z,0.63
2022-09-10T02:40:15.327Z,0.80
2022-09-10T02:42:20.134Z,0.60
2022-09-10T02:44:27.289Z,0.70
2022-09-10T02:46:34.766Z,0.68
2022-09-10T02:48:40.076Z,0.90
2022-09-10T02:50:48.448Z,0.70
2022-09-10T02:52:54.095Z,1.25
2022-09-10T02:54:59.183Z,0.95
2022-09-10T02:57:05.152Z,0.80
2022-09-10T02:59:09.923Z,0.75
2022-09-10T03:01:17.976Z,0.63
2022-09-10T03:03:31.063Z,0.60
2022-09-10T03:05:38.635Z,0.60
2022-09-10T03:07:43.844Z,0.60
2022-09-10T03:09:49.681Z,0.60
2022-09-10T03:11:54.385Z,0.60
2022-09-10T03:13:59.556Z,0.57
2022-09-10T03:16:07.029Z,0.70
2022-09-10T03:18:12.941Z,0.50
2022-09-10T03:20:23.052Z,0.73
2022-09-10T03:22:28.514Z,0.57
2022-09-10T03:24:36.020Z,0.60
2022-09-10T03:26:40.840Z,0.82
2022-09-10T03:28:47.290Z,0.70
2022-09-10T03:30:53.791Z,0.52
2022-09-10T03:32:59.097Z,0.55
2022-09-10T03:35:03.846Z,0.50
2022-09-10T03:37:12.233Z,0.50
2022-09-10T03:39:18.555Z,0.60
2022-09-10T03:41:23.410Z,0.40
2022-09-10T03:43:29.769Z,0.80
2022-09-10T03:45:35.374Z,0.50
2022-09-10T03:47:41.197Z,0.70
2022-09-10T03:51:51.510Z,0.70
2022-09-10T03:53:59.802Z,0.63
2022-09-10T03:56:05.304Z,0.60
2022-09-10T03:58:11.437Z,0.50
2022-09-10T04:00:17.891Z,0.70
2022-09-10T04:02:26.199Z,0.55
2022-09-10T04:04:31.978Z,0.50
2022-09-10T04:06:37.718Z,0.68
2022-09-10T04:08:43.478Z,0.63
2022-09-10T04:10:52.650Z,0.88
2022-09-10T04:12:57.468Z,0.63
2022-09-10T04:15:04.544Z,0.50
2022-09-10T04:17:09.972Z,0.60
2022-09-10T04:19:14.807Z,0.73
2022-09-10T04:21:20.349Z,0.70
2022-09-10T04:23:27.613Z,0.52
2022-09-10T04:25:32.512Z,0.60
2022-09-10T04:27:40.501Z,0.82
2022-09-10T04:29:45.959Z,0.60
2022-09-10T04:31:50.879Z,0.85
2022-09-10T04:33:56.973Z,0.55
2022-09-10T04:36:04.822Z,0.65
2022-09-10T04:38:11.151Z,0.40
2022-09-10T04:40:17.970Z,0.70
2022-09-10T04:44:32.119Z,0.63
2022-09-10T04:46:37.269Z,0.63
2022-09-10T04:48:46.401Z,0.50
2022-09-10T04:51:15.318Z,0.70
2022-09-10T04:53:22.636Z,0.77
2022-09-10T04:55:27.865Z,0.68
2022-09-10T04:57:32.792Z,0.93
2022-09-10T04:59:40.694Z,0.93
2022-09-10T05:01:45.904Z,0.73
2022-09-10T05:03:50.854Z,1.10
2022-09-10T05:05:56.768Z,1.13
2022-09-10T05:08:02.118Z,0.70
2022-09-10T05:10:10.958Z,0.93
2022-09-10T05:12:16.167Z,1.00
2022-09-10T05:14:20.968Z,0.70
2022-09-10T05:16:28.612Z,0.88
2022-09-10T05:18:33.730Z,0.80
2022-09-10T05:20:38.520Z,0.73
2022-09-10T05:22:43.354Z,0.60
2022-09-10T05:24:48.196Z,0.73
2022-09-10T05:26:53.030Z,1.10
2022-09-10T05:28:59.862Z,0.75
2022-09-10T05:31:09.720Z,0.60
2022-09-10T05:33:18.072Z,0.63
2022-09-10T05:35:23.554Z,0.80
2022-09-10T05:37:28.347Z,0.70
2022-09-10T05:39:33.272Z,0.40
2022-09-10T05:41:38.119Z,0.70
2022-09-10T05:43:43.118Z,0.70
2022-09-10T05:45:49.006Z,0.65
2022-09-10T05:47:54.215Z,0.60
2022-09-10T05:50:03.572Z,0.60
2022-09-10T05:52:09.629Z,0.60
2022-09-10T05:54:14.666Z,0.63
2022-09-10T05:56:20.646Z,0.77
2022-09-10T06:00:30.452Z,0.70
2022-09-10T06:02:38.696Z,0.50
2022-09-10T06:04:44.246Z,0.57
2022-09-10T06:06:51.649Z,0.60
2022-09-10T06:08:57.120Z,0.68
2022-09-10T06:11:25.563Z,0.68
2022-09-10T06:13:30.379Z,1.00
2022-09-10T06:15:37.970Z,0.82
2022-09-10T06:17:42.980Z,0.73
2022-09-10T06:19:48.292Z,0.80
2022-09-10T06:22:00.714Z,0.80
2022-09-10T06:24:07.397Z,0.88
2022-09-10T06:26:17.146Z,0.63
2022-09-10T06:28:22.602Z,0.60
2022-09-10T06:30:27.485Z,0.60
2022-09-10T06:32:32.430Z,0.77
2022-09-10T06:34:38.900Z,0.65
2022-09-10T06:36:45.706Z,1.45
2022-09-10T06:38:53.423Z,0.88
2022-09-10T06:41:00.793Z,0.60
2022-09-10T06:43:11.917Z,0.65
2022-09-10T06:45:42.208Z,0.80
2022-09-10T06:50:31.055Z,0.60
2022-09-10T06:52:37.768Z,0.60
2022-09-10T06:54:48.256Z,0.70
2022-09-10T06:57:11.477Z,0.77
2022-09-10T07:01:26.451Z,0.63
2022-09-10T07:03:33.940Z,0.63
2022-09-10T07:05:38.870Z,0.60
2022-09-10T07:07:43.767Z,0.80
2022-09-10T07:09:51.270Z,0.60
2022-09-10T07:11:57.590Z,0.68
2022-09-10T07:14:03.094Z,0.68
2022-09-10T07:16:10.577Z,0.60
2022-09-10T07:20:23.555Z,0.50
2022-09-10T07:22:28.914Z,0.57
2022-09-10T07:24:35.087Z,0.82
2022-09-10T07:27:00.631Z,0.85
2022-09-10T07:29:06.287Z,0.80
2022-09-10T07:31:17.020Z,0.70
2022-09-10T07:33:23.213Z,0.90
2022-09-10T07:35:28.623Z,0.88
2022-09-10T07:37:33.727Z,0.90
2022-09-10T07:39:40.589Z,0.75
2022-09-10T07:41:46.641Z,0.70
2022-09-10T07:43:58.652Z,0.70
2022-09-10T07:46:08.098Z,0.60
2022-09-10T07:48:14.292Z,0.68
2022-09-10T07:50:19.262Z,0.70
2022-09-10T07:52:28.088Z,0.70
2022-09-10T07:54:34.068Z,1.10
2022-09-10T07:56:38.790Z,0.90
2022-09-10T07:58:46.052Z,0.90
2022-09-10T08:02:59.313Z,0.80
2022-09-10T08:05:04.361Z,1.02
2022-09-10T08:07:10.876Z,0.80
2022-09-10T08:09:19.432Z,0.70
2022-09-10T08:11:29.782Z,0.73
2022-09-10T08:15:44.766Z,1.60
2022-09-10T08:17:52.480Z,1.10
2022-09-10T08:19:59.901Z,1.48
2022-09-10T08:22:04.643Z,1.13
2022-09-10T08:24:16.155Z,1.00
2022-09-10T08:26:26.994Z,0.80
2022-09-10T08:28:35.325Z,1.17
2022-09-10T08:30:42.660Z,1.00
2022-09-10T08:34:56.001Z,1.63
2022-09-10T08:37:00.825Z,1.38
2022-09-10T08:39:08.371Z,1.20
2022-09-10T08:41:21.917Z,1.50
2022-09-10T08:43:33.908Z,1.10
2022-09-10T08:45:41.694Z,1.08
2022-09-10T08:47:56.114Z,1.20
2022-09-10T08:50:11.739Z,1.10
2022-09-10T08:52:22.893Z,1.10
2022-09-10T08:54:34.320Z,0.80
2022-09-10T08:56:39.138Z,0.80
2022-09-10T08:58:46.863Z,1.20
2022-09-10T09:00:58.801Z,0.82
2022-09-10T09:03:13.782Z,0.90
2022-09-10T09:05:25.910Z,0.85
2022-09-10T09:07:39.397Z,1.00
2022-09-10T09:09:46.266Z,1.50
2022-09-10T09:12:01.098Z,1.90
2022-09-10T09:14:33.607Z,1.30
2022-09-10T09:16:55.121Z,1.10
2022-09-10T09:19:10.727Z,0.93
2022-09-10T09:21:20.610Z,0.80
2022-09-10T09:23:28.366Z,1.38
2022-09-10T09:25:39.281Z,0.70
2022-09-10T09:27:44.697Z,0.60
2022-09-10T09:29:56.114Z,0.98
2022-09-10T09:32:06.047Z,0.90
2022-09-10T09:34:19.618Z,1.30
2022-09-10T09:36:32.916Z,0.80
2022-09-10T09:38:41.394Z,1.10
2022-09-10T09:40:52.273Z,1.17
2022-09-10T09:43:02.315Z,0.90
2022-09-10T09:45:19.845Z,0.73
2022-09-10T09:47:24.797Z,0.60
2022-09-10T09:49:31.911Z,0.88
2022-09-10T09:51:40.681Z,0.60
2022-09-10T09:53:48.962Z,1.30
2022-09-10T09:55:57.616Z,0.90
2022-09-10T09:58:30.618Z,1.20
2022-09-10T10:00:38.117Z,1.10
2022-09-10T10:02:44.417Z,0.95
2022-09-10T10:05:07.231Z,0.90
2022-09-10T10:07:14.730Z,1.08
2022-09-10T10:09:23.253Z,1.48
2022-09-10T10:11:50.321Z,1.20
2022-09-10T10:13:55.117Z,0.93
2022-09-10T10:16:16.347Z,1.00
2022-09-10T10:18:32.591Z,1.23
2022-09-10T10:20:41.887Z,1.20
2022-09-10T10:22:50.139Z,1.00
2022-09-10T10:24:55.911Z,0.95
2022-09-10T10:27:01.439Z,1.30
2022-09-10T10:29:09.886Z,1.42
2022-09-10T10:31:16.021Z,1.35
2022-09-10T10:33:22.244Z,1.17
2022-09-10T10:35:49.944Z,1.17
2022-09-10T10:38:16.045Z,1.20
2022-09-10T10:42:37.659Z,1.40
2022-09-10T10:45:02.427Z,1.05
2022-09-10T10:47:25.482Z,1.15
2022-09-10T10:49:52.205Z,1.20
2022-09-10T10:52:07.855Z,1.15
2022-09-10T10:56:36.136Z,0.95
2022-09-10T10:59:07.279Z,0.85
2022-09-10T11:01:18.282Z,1.30
2022-09-10T11:03:28.042Z,1.08
2022-09-10T11:05:38.439Z,1.10
2022-09-10T11:07:46.801Z,1.20
2022-09-10T11:09:59.108Z,0.82
2022-09-10T11:12:07.950Z,0.82
2022-09-10T11:14:24.145Z,0.77
2022-09-10T11:16:40.294Z,0.85
2022-09-10T11:18:50.313Z,1.00
2022-09-10T11:21:03.321Z,1.30
2022-09-10T11:23:18.628Z,1.27
2022-09-10T11:25:31.799Z,0.85
2022-09-10T11:27:51.164Z,1.00
2022-09-10T11:30:01.388Z,1.02
2022-09-10T11:32:09.644Z,1.08
2022-09-10T11:34:22.641Z,0.80
2022-09-10T11:36:34.009Z,1.10
2022-09-10T11:38:49.608Z,1.15
2022-09-10T11:43:14.331Z,1.23
2022-09-10T11:45:25.263Z,1.13
2022-09-10T11:47:37.777Z,1.10
2022-09-10T11:49:51.327Z,1.58
2022-09-10T11:51:57.075Z,1.02
2022-09-10T11:54:03.859Z,1.40
2022-09-10T11:56:41.216Z,1.15
2022-09-10T11:58:57.497Z,1.27
2022-09-10T12:01:11.705Z,1.00
2022-09-10T12:03:48.033Z,0.90
2022-09-10T12:06:02.412Z,1.00
2022-09-10T12:08:14.904Z,1.00
2022-09-10T12:10:25.752Z,1.20
2022-09-10T12:12:41.148Z,1.30
2022-09-10T12:14:45.981Z,1.10
2022-09-10T12:16:54.700Z,1.58
2022-09-10T12:19:01.770Z,1.17
2022-09-10T12:21:11.481Z,1.02
2022-09-10T12:23:21.069Z,1.02
2022-09-10T12:25:33.960Z,1.20
2022-09-10T12:27:53.538Z,1.10
2022-09-10T12:29:58.272Z,1.40
2022-09-10T12:32:33.060Z,1.17
2022-09-10T12:34:38.509Z,1.23
2022-09-10T12:37:19.902Z,1.10
2022-09-10T12:39:27.472Z,0.80
2022-09-10T12:42:01.104Z,1.30
2022-09-10T12:44:34.361Z,0.85
2022-09-10T12:46:44.754Z,1.13
2022-09-10T12:48:51.693Z,1.33
2022-09-10T12:51:00.656Z,1.20
2022-09-10T12:53:34.475Z,1.45
2022-09-10T12:55:46.306Z,1.02
2022-09-10T12:58:02.657Z,0.95
2022-09-10T13:00:22.215Z,1.10
2022-09-10T13:02:34.003Z,1.00
2022-09-10T13:04:42.091Z,1.00
2022-09-10T13:06:47.758Z,0.82
2022-09-10T13:08:53.878Z,1.23
2022-09-10T13:11:16.434Z,1.20
2022-09-10T13:13:38.926Z,1.08
2022-09-10T13:15:53.706Z,0.85
2022-09-10T13:18:29.384Z,1.13
2022-09-10T13:20:35.980Z,1.00
2022-09-10T13:23:06.029Z,0.95
2022-09-10T13:25:29.257Z,0.80
2022-09-10T13:27:43.686Z,1.17
2022-09-10T13:29:50.542Z,1.40
2022-09-10T13:32:04.927Z,0.93
2022-09-10T13:34:41.275Z,1.77
2022-09-10T13:36:55.377Z,1.80
2022-09-10T13:39:16.659Z,0.98
2022-09-10T13:41:45.880Z,1.02
2022-09-10T13:44:06.019Z,1.27
2022-09-10T13:46:16.100Z,0.70
2022-09-10T13:48:28.280Z,1.00
2022-09-10T13:50:39.613Z,0.98
2022-09-10T13:52:48.692Z,0.88
2022-09-10T13:54:57.242Z,1.13
2022-09-10T13:57:07.274Z,0.70
2022-09-10T13:59:23.617Z,1.25
2022-09-10T14:01:51.196Z,1.35
2022-09-10T14:03:58.683Z,0.90
2022-09-10T14:06:05.410Z,0.90
2022-09-10T14:08:15.433Z,1.20
2022-09-10T14:10:20.757Z,1.15
2022-09-10T14:12:30.126Z,1.15
2022-09-10T14:14:41.126Z,1.23
2022-09-10T14:16:52.018Z,1.02
2022-09-10T14:19:02.979Z,0.88
2022-09-10T14:21:08.656Z,0.98
2022-09-10T14:23:18.068Z,1.58
2022-09-10T14:25:32.277Z,0.85
2022-09-10T14:27:39.067Z,1.08
2022-09-10T14:29:44.302Z,1.30
2022-09-10T14:33:54.167Z,1.00
2022-09-10T14:36:16.365Z,1.15
2022-09-10T14:38:29.417Z,1.98
2022-09-10T14:40:39.919Z,1.17
2022-09-10T14:42:44.808Z,1.00
2022-09-10T14:44:49.568Z,1.00
2022-09-10T14:46:57.561Z,1.38
2022-09-10T14:49:11.240Z,0.90
2022-09-10T14:51:22.071Z,0.70
2022-09-10T14:53:26.814Z,1.17
2022-09-10T14:55:34.824Z,1.10
2022-09-10T14:57:41.379Z,1.00
2022-09-10T14:59:47.666Z,1.40
2022-09-10T15:01:53.133Z,0.95
2022-09-10T15:03:58.023Z,0.90
2022-09-10T15:06:02.768Z,1.23
2022-09-10T15:08:10.138Z,0.93
2022-09-10T15:10:15.079Z,2.00
2022-09-10T15:12:25.101Z,1.67
2022-09-10T15:14:29.995Z,1.30
2022-09-10T15:16:35.219Z,1.65
2022-09-10T15:20:45.087Z,1.38
2022-09-10T15:22:49.843Z,1.40
2022-09-10T15:25:10.144Z,1.08
2022-09-10T15:27:15.766Z,0.80
2022-09-10T15:29:20.672Z,1.60
2022-09-10T15:31:30.706Z,1.25
2022-09-10T15:33:37.407Z,0.88
2022-09-10T15:35:42.207Z,0.95
2022-09-10T15:37:46.982Z,1.13
2022-09-10T15:39:52.602Z,1.30
2022-09-10T15:42:00.029Z,2.38
2022-09-10T15:44:06.103Z,1.10
2022-09-10T15:46:11.174Z,1.80
2022-09-10T15:50:21.199Z,1.33
2022-09-10T15:52:26.484Z,1.23
2022-09-10T15:54:32.534Z,1.30
2022-09-10T15:56:37.492Z,1.27
2022-09-10T15:58:50.074Z,1.40
2022-09-10T16:00:55.438Z,1.45
2022-09-10T16:03:01.959Z,1.50
2022-09-10T16:05:07.577Z,1.13
2022-09-10T16:07:12.407Z,1.52
2022-09-10T16:09:17.273Z,1.10
2022-09-10T16:11:22.837Z,1.20
2022-09-10T16:13:28.711Z,1.02
2022-09-10T16:15:37.982Z,1.20
2022-09-10T16:17:42.688Z,0.80
2022-09-10T16:19:47.501Z,1.30
2022-09-10T16:21:53.133Z,1.13
2022-09-10T16:23:59.529Z,1.20
2022-09-10T16:26:06.060Z,1.10
2022-09-10T16:28:10.963Z,1.25
2022-09-10T16:30:16.066Z,1.10
2022-09-10T16:34:28.578Z,1.00
2022-09-10T16:36:34.749Z,0.80
2022-09-10T16:38:40.074Z,1.20
2022-09-10T16:40:45.644Z,0.95
2022-09-10T16:42:50.416Z,1.30
2022-09-10T16:44:55.233Z,1.63
2022-09-10T16:47:00.675Z,1.10
2022-09-10T16:49:09.295Z,1.20
2022-09-10T16:51:16.546Z,1.00
2022-09-10T16:53:21.354Z,0.90
2022-09-10T16:55:26.120Z,0.82
2022-09-10T16:57:31.006Z,1.40
2022-09-10T16:59:35.775Z,0.98
2022-09-10T17:01:40.644Z,0.60
2022-09-10T17:03:47.968Z,1.05
2022-09-10T17:05:56.947Z,1.08
2022-09-10T17:08:01.691Z,1.30
2022-09-10T17:10:06.802Z,1.15
2022-09-10T17:12:11.789Z,1.15
2022-09-10T17:14:16.602Z,0.93
2022-09-10T17:16:28.152Z,0.70
2022-09-10T17:18:32.945Z,1.10
2022-09-10T17:20:37.997Z,0.80
2022-09-10T17:22:45.361Z,1.40
2022-09-10T17:24:50.871Z,1.00
2022-09-10T17:26:56.933Z,1.00
2022-09-10T17:29:03.427Z,0.90
2022-09-10T17:31:08.801Z,1.00
2022-09-10T17:33:13.714Z,0.95
2022-09-10T17:35:18.542Z,1.05
2022-09-10T17:37:24.497Z,0.90
2022-09-10T17:39:32.111Z,1.02
2022-09-10T17:41:36.889Z,0.80
2022-09-10T17:43:41.818Z,2.83
2022-09-10T17:45:46.665Z,1.40
2022-09-10T17:47:51.413Z,1.10
2022-09-10T17:49:56.559Z,1.10
2022-09-10T17:52:01.486Z,1.70
2022-09-10T17:54:08.393Z,1.30
2022-09-10T17:56:17.594Z,1.50
2022-09-10T17:58:23.072Z,0.90
2022-09-10T18:00:28.522Z,1.02
2022-09-10T18:02:33.507Z,1.25
2022-09-10T18:04:38.285Z,1.35
2022-09-10T18:06:43.873Z,1.20
2022-09-10T18:08:48.831Z,1.00
2022-09-10T18:11:05.806Z,1.10
2022-09-10T18:13:13.374Z,1.10
2022-09-10T18:15:19.683Z,1.20
2022-09-10T18:17:24.509Z,1.15
2022-09-10T18:19:29.259Z,1.52
2022-09-10T18:21:35.561Z,1.00
2022-09-10T18:23:41.355Z,1.10
2022-09-10T18:25:49.835Z,0.98
2022-09-10T18:27:55.637Z,1.20
2022-09-10T18:30:04.166Z,0.90
2022-09-10T18:32:09.862Z,0.95
2022-09-10T18:34:22.116Z,0.90
2022-09-10T18:36:29.032Z,0.93
2022-09-10T18:38:33.910Z,1.00
2022-09-10T18:40:39.362Z,1.00
2022-09-10T18:42:46.722Z,1.00
2022-09-10T18:44:51.670Z,1.50
2022-09-10T18:46:59.516Z,1.35
2022-09-10T18:49:05.309Z,1.45
2022-09-10T18:51:12.932Z,1.45
2022-09-10T18:53:18.400Z,1.08
2022-09-10T18:55:23.211Z,1.38
2022-09-10T18:57:27.921Z,1.00
2022-09-10T18:59:32.763Z,1.10
2022-09-10T19:01:39.228Z,1.30
2022-09-10T19:03:48.403Z,0.98
2022-09-10T19:05:53.133Z,1.00
2022-09-10T19:07:58.785Z,1.33
2022-09-10T19:10:04.581Z,1.00
2022-09-10T19:12:09.898Z,1.00
2022-09-10T19:14:19.286Z,0.80
2022-09-10T19:16:26.807Z,1.15
2022-09-10T19:18:32.595Z,1.10
2022-09-10T19:20:41.946Z,1.10
2022-09-10T19:22:46.788Z,1.10
2022-09-10T19:24:56.155Z,1.20
2022-09-10T19:27:01.262Z,1.30
2022-09-10T19:29:07.493Z,1.55
2022-09-10T19:31:15.480Z,1.00
2022-09-10T19:33:21.488Z,1.25
2022-09-10T19:35:27.193Z,0.80
2022-09-10T19:37:35.087Z,1.33
2022-09-10T19:39:40.134Z,1.55
2022-09-10T19:41:46.642Z,1.15
2022-09-10T19:43:53.727Z,1.50
2022-09-10T19:45:58.996Z,0.90
2022-09-10T19:48:03.850Z,1.20
2022-09-10T19:50:09.094Z,1.45
2022-09-10T19:54:22.800Z,1.38
2022-09-10T19:56:32.315Z,1.10
2022-09-10T19:58:38.330Z,1.15
2022-09-10T20:00:47.080Z,1.55
2022-09-10T20:02:53.769Z,1.50
2022-09-10T20:04:58.826Z,1.50
2022-09-10T20:07:03.835Z,0.90
2022-09-10T20:09:10.934Z,1.13
2022-09-10T20:11:21.737Z,1.05
2022-09-10T20:13:26.500Z,1.13
2022-09-10T20:15:31.532Z,0.98
2022-09-10T20:17:36.303Z,1.35
2022-09-10T20:19:41.095Z,1.05
2022-09-10T20:21:46.549Z,1.35
2022-09-10T20:23:55.647Z,1.20
2022-09-10T20:26:10.608Z,1.30
2022-09-10T20:28:17.975Z,1.50
2022-09-10T20:30:22.812Z,1.67
2022-09-10T20:32:27.988Z,1.85
2022-09-10T20:36:38.973Z,1.02
2022-09-10T20:38:44.256Z,1.20
2022-09-10T20:40:49.063Z,1.10
2022-09-10T20:42:55.070Z,1.40
2022-09-10T20:45:02.746Z,1.10
2022-09-10T20:47:08.186Z,1.20
2022-09-10T20:49:14.090Z,1.33
2022-09-10T20:51:20.247Z,1.25
2022-09-10T20:53:25.431Z,1.40
2022-09-10T20:55:30.393Z,1.30
2022-09-10T20:57:35.480Z,1.73
2022-09-10T20:59:40.303Z,1.42
2022-09-10T21:01:50.738Z,1.65
2022-09-10T21:03:58.065Z,1.70
2022-09-10T21:06:02.793Z,1.15
2022-09-10T21:08:08.208Z,1.20
2022-09-10T21:10:13.129Z,1.48
2022-09-10T21:12:17.847Z,1.58
2022-09-10T21:14:22.638Z,1.38
2022-09-10T21:16:28.710Z,1.50
2022-09-10T21:18:36.661Z,1.95
2022-09-10T21:20:41.506Z,1.20
2022-09-10T21:22:46.408Z,1.35
2022-09-10T21:24:51.146Z,1.45
2022-09-10T21:26:56.431Z,1.20
2022-09-10T21:31:07.422Z,1.25
2022-09-10T21:35:19.376Z,1.50
2022-09-10T21:37:25.480Z,1.70
2022-09-10T21:39:30.386Z,1.60
2022-09-10T21:41:36.952Z,1.20
2022-09-10T21:43:45.521Z,1.27
2022-09-10T21:45:50.640Z,1.63
2022-09-10T21:49:59.940Z,1.63
2022-09-10T21:52:08.449Z,1.60
2022-09-10T21:54:18.742Z,1.52
2022-09-10T21:56:24.916Z,1.60
2022-09-10T21:58:31.480Z,1.40
2022-09-10T22:00:36.452Z,1.60
2022-09-10T22:02:42.202Z,1.58
2022-09-10T22:04:46.973Z,1.35
2022-09-10T22:06:52.000Z,1.85
2022-09-10T22:09:01.590Z,1.90
2022-09-10T22:11:14.273Z,1.90
2022-09-10T22:13:19.066Z,1.60
2022-09-10T22:15:23.823Z,1.63
2022-09-10T22:17:28.642Z,1.40
2022-09-10T22:19:33.377Z,1.42
2022-09-10T22:21:38.946Z,1.45
2022-09-10T22:23:43.940Z,1.70
2022-09-10T22:25:51.280Z,1.38
2022-09-10T22:27:58.364Z,1.20
2022-09-10T22:30:04.979Z,1.73
2022-09-10T22:32:12.471Z,1.58
2022-09-10T22:34:19.261Z,1.45
2022-09-10T22:36:26.609Z,1.27
2022-09-10T22:38:31.415Z,1.30
2022-09-10T22:40:36.475Z,1.42
2022-09-10T22:42:43.852Z,1.42
2022-09-10T22:44:48.938Z,1.40
2022-09-10T22:48:58.982Z,1.50
2022-09-10T22:51:03.827Z,1.50
2022-09-10T22:53:08.555Z,2.28
2022-09-10T22:55:13.382Z,1.90
2022-09-10T22:57:18.268Z,1.98
2022-09-10T22:59:28.034Z,2.42
2022-09-10T23:01:36.661Z,1.73
2022-09-10T23:03:42.031Z,1.70
2022-09-10T23:05:46.919Z,1.55
2022-09-10T23:07:52.764Z,1.60
2022-09-10T23:09:57.467Z,1.60
2022-09-10T23:12:02.278Z,1.73
2022-09-10T23:14:09.342Z,1.80
2022-09-10T23:16:20.169Z,2.10
2022-09-10T23:18:25.010Z,2.22
2022-09-10T23:20:30.245Z,2.28
2022-09-10T23:24:39.623Z,1.60
2022-09-10T23:26:45.383Z,2.00
2022-09-10T23:28:50.957Z,2.08
2022-09-10T23:30:55.824Z,1.90
2022-09-10T23:33:03.174Z,1.80
2022-09-10T23:35:09.527Z,1.77
2022-09-10T23:37:14.275Z,1.40
2022-09-10T23:39:20.932Z,1.50
2022-09-10T23:41:25.803Z,1.70
2022-09-10T23:43:31.238Z,1.77
2022-09-10T23:47:40.806Z,1.70
2022-09-10T23:51:53.298Z,1.88
2022-09-10T23:56:04.932Z,1.30
2022-09-10T23:58:09.664Z,1.67
